sensor_id;sensor_type;location;lat;lon;timestamp;P1;P2;P0
81989;PMS5003;71485;51.638;-0.182;2024-02-26T00:02:02;6;6;
81989;PMS5003;71485;51.638;-0.182;2024-02-26T00:04:26;8;7;
81989;PMS5003;71485;51.638;-0.182;2024-02-26T00:06:51;7;7;
81989;PMS5003;71485;51.638;-0.182;2024-02-26T00:09:20;4;4;
81989;PMS5003;71485;51.638;-0.182;2024-02-26T00:11:43;6;6;
81989;PMS5003;71485;51.638;-0.182;2024-02-26T00:14:08;7;7;
81989;PMS5003;71485;51.638;-0.182;2024-02-26T00:16:39;4;4;
81989;PMS5003;71485;51.638;-0.182;2024-02-26T00:19:00;5;5;
81989;PMS5003;71485;51.638;-0.182;2024-02-26T00:21:25;6;6;
81989;PMS5003;71485;51.638;-0.182;2024-02-26T00:23:52;8;6;
81989;PMS5003;71485;51.638;-0.182;2024-02-26T00:26:18;5;5;
81989;PMS5003;71485;51.638;-0.182;2024-02-26T00:28:45;6;6;
81989;PMS5003;71485;51.638;-0.182;2024-02-26T00:31:08;5;5;
81989;PMS5003;71485;51.638;-0.182;2024-02-26T00:33:37;5;5;
81989;PMS5003;71485;51.638;-0.182;2024-02-26T00:35:59;6;6;
81989;PMS5003;71485;51.638;-0.182;2024-02-26T00:38:26;4;4;
81989;PMS5003;71485;51.638;-0.182;2024-02-26T00:40:50;5;5;
81989;PMS5003;71485;51.638;-0.182;2024-02-26T00:43:19;3;3;
81989;PMS5003;71485;51.638;-0.182;2024-02-26T00:45:42;5;5;
81989;PMS5003;71485;51.638;-0.182;2024-02-26T00:48:07;4;4;
81989;PMS5003;71485;51.638;-0.182;2024-02-26T00:50:37;6;5;
81989;PMS5003;71485;51.638;-0.182;2024-02-26T00:52:59;4;4;
81989;PMS5003;71485;51.638;-0.182;2024-02-26T00:55:24;5;5;
81989;PMS5003;71485;51.638;-0.182;2024-02-26T00:57:50;4;4;
81989;PMS5003;71485;51.638;-0.182;2024-02-26T01:00:16;6;5;
81989;PMS5003;71485;51.638;-0.182;2024-02-26T01:02:41;5;5;
81989;PMS5003;71485;51.638;-0.182;2024-02-26T01:05:07;4;4;
81989;PMS5003;71485;51.638;-0.182;2024-02-26T01:07:34;3;3;
81989;PMS5003;71485;51.638;-0.182;2024-02-26T01:09:59;4;4;
81989;PMS5003;71485;51.638;-0.182;2024-02-26T01:12:24;6;6;
81989;PMS5003;71485;51.638;-0.182;2024-02-26T01:14:49;6;5;
81989;PMS5003;71485;51.638;-0.182;2024-02-26T01:17:15;4;3;
81989;PMS5003;71485;51.638;-0.182;2024-02-26T01:19:41;4;4;
81989;PMS5003;71485;51.638;-0.182;2024-02-26T01:22:06;4;4;
81989;PMS5003;71485;51.638;-0.182;2024-02-26T01:24:34;4;4;
81989;PMS5003;71485;51.638;-0.182;2024-02-26T01:27:00;4;4;
81989;PMS5003;71485;51.638;-0.182;2024-02-26T01:29:23;4;4;
81989;PMS5003;71485;51.638;-0.182;2024-02-26T01:31:49;5;5;
81989;PMS5003;71485;51.638;-0.182;2024-02-26T01:34:15;4;4;
81989;PMS5003;71485;51.638;-0.182;2024-02-26T01:36:40;7;6;
81989;PMS5003;71485;51.638;-0.182;2024-02-26T01:39:07;3;3;
81989;PMS5003;71485;51.638;-0.182;2024-02-26T01:41:32;4;4;
81989;PMS5003;71485;51.638;-0.182;2024-02-26T01:43:58;3;3;
81989;PMS5003;71485;51.638;-0.182;2024-02-26T01:46:23;4;4;
81989;PMS5003;71485;51.638;-0.182;2024-02-26T01:48:49;5;4;
81989;PMS5003;71485;51.638;-0.182;2024-02-26T01:51:15;5;4;
81989;PMS5003;71485;51.638;-0.182;2024-02-26T01:53:40;5;5;
81989;PMS5003;71485;51.638;-0.182;2024-02-26T01:56:07;4;4;
81989;PMS5003;71485;51.638;-0.182;2024-02-26T01:58:33;5;5;
81989;PMS5003;71485;51.638;-0.182;2024-02-26T02:01:02;3;3;
81989;PMS5003;71485;51.638;-0.182;2024-02-26T02:03:23;5;5;
81989;PMS5003;71485;51.638;-0.182;2024-02-26T02:05:48;3;3;
81989;PMS5003;71485;51.638;-0.182;2024-02-26T02:08:16;4;3;
81989;PMS5003;71485;51.638;-0.182;2024-02-26T02:10:41;3;3;
81989;PMS5003;71485;51.638;-0.182;2024-02-26T02:13:05;4;4;
81989;PMS5003;71485;51.638;-0.182;2024-02-26T02:15:31;4;3;
81989;PMS5003;71485;51.638;-0.182;2024-02-26T02:17:57;3;3;
81989;PMS5003;71485;51.638;-0.182;2024-02-26T02:20:24;2;2;
81989;PMS5003;71485;51.638;-0.182;2024-02-26T02:22:51;4;4;
81989;PMS5003;71485;51.638;-0.182;2024-02-26T02:25:15;5;4;
81989;PMS5003;71485;51.638;-0.182;2024-02-26T02:27:40;2;2;
81989;PMS5003;71485;51.638;-0.182;2024-02-26T02:30:06;4;3;
81989;PMS5003;71485;51.638;-0.182;2024-02-26T02:32:32;2;2;
81989;PMS5003;71485;51.638;-0.182;2024-02-26T02:34:56;4;3;
81989;PMS5003;71485;51.638;-0.182;2024-02-26T02:37:22;2;2;
81989;PMS5003;71485;51.638;-0.182;2024-02-26T02:39:49;4;4;
81989;PMS5003;71485;51.638;-0.182;2024-02-26T02:42:13;4;4;
81989;PMS5003;71485;51.638;-0.182;2024-02-26T02:44:40;4;4;
81989;PMS5003;71485;51.638;-0.182;2024-02-26T02:47:05;5;5;
81989;PMS5003;71485;51.638;-0.182;2024-02-26T02:49:32;4;4;
81989;PMS5003;71485;51.638;-0.182;2024-02-26T02:51:56;3;3;
81989;PMS5003;71485;51.638;-0.182;2024-02-26T02:54:22;5;4;
81989;PMS5003;71485;51.638;-0.182;2024-02-26T02:56:48;4;4;
81989;PMS5003;71485;51.638;-0.182;2024-02-26T02:59:15;4;4;
81989;PMS5003;71485;51.638;-0.182;2024-02-26T03:01:39;5;5;
81989;PMS5003;71485;51.638;-0.182;2024-02-26T03:04:06;2;2;
81989;PMS5003;71485;51.638;-0.182;2024-02-26T03:06:31;3;3;
81989;PMS5003;71485;51.638;-0.182;2024-02-26T03:08:59;2;2;
81989;PMS5003;71485;51.638;-0.182;2024-02-26T03:11:22;4;4;
81989;PMS5003;71485;51.638;-0.182;2024-02-26T03:13:51;4;4;
81989;PMS5003;71485;51.638;-0.182;2024-02-26T03:16:13;2;2;
81989;PMS5003;71485;51.638;-0.182;2024-02-26T03:18:39;3;3;
81989;PMS5003;71485;51.638;-0.182;2024-02-26T03:21:04;4;3;
81989;PMS5003;71485;51.638;-0.182;2024-02-26T03:23:30;4;4;
81989;PMS5003;71485;51.638;-0.182;2024-02-26T03:25:59;4;4;
81989;PMS5003;71485;51.638;-0.182;2024-02-26T03:28:21;2;2;
81989;PMS5003;71485;51.638;-0.182;2024-02-26T03:30:48;2;2;
81989;PMS5003;71485;51.638;-0.182;2024-02-26T03:33:13;3;3;
81989;PMS5003;71485;51.638;-0.182;2024-02-26T03:35:39;3;3;
81989;PMS5003;71485;51.638;-0.182;2024-02-26T03:38:09;4;4;
81989;PMS5003;71485;51.638;-0.182;2024-02-26T03:40:30;2;2;
81989;PMS5003;71485;51.638;-0.182;2024-02-26T03:42:57;3;3;
81989;PMS5003;71485;51.638;-0.182;2024-02-26T03:45:21;3;3;
81989;PMS5003;71485;51.638;-0.182;2024-02-26T03:47:47;3;3;
81989;PMS5003;71485;51.638;-0.182;2024-02-26T03:50:13;2;2;
81989;PMS5003;71485;51.638;-0.182;2024-02-26T03:52:38;2;2;
81989;PMS5003;71485;51.638;-0.182;2024-02-26T03:55:04;2;2;
81989;PMS5003;71485;51.638;-0.182;2024-02-26T03:57:29;3;3;
81989;PMS5003;71485;51.638;-0.182;2024-02-26T03:59:56;3;3;
81989;PMS5003;71485;51.638;-0.182;2024-02-26T04:02:22;1;1;
81989;PMS5003;71485;51.638;-0.182;2024-02-26T04:04:47;3;3;
81989;PMS5003;71485;51.638;-0.182;2024-02-26T04:07:12;4;4;
81989;PMS5003;71485;51.638;-0.182;2024-02-26T04:09:39;4;4;
81989;PMS5003;71485;51.638;-0.182;2024-02-26T04:12:04;2;2;
81989;PMS5003;71485;51.638;-0.182;2024-02-26T04:14:29;3;3;
81989;PMS5003;71485;51.638;-0.182;2024-02-26T04:16:55;4;4;
81989;PMS5003;71485;51.638;-0.182;2024-02-26T04:19:21;2;2;
81989;PMS5003;71485;51.638;-0.182;2024-02-26T04:21:47;3;3;
81989;PMS5003;71485;51.638;-0.182;2024-02-26T04:24:17;3;3;
81989;PMS5003;71485;51.638;-0.182;2024-02-26T04:26:39;3;3;
81989;PMS5003;71485;51.638;-0.182;2024-02-26T04:29:03;2;2;
81989;PMS5003;71485;51.638;-0.182;2024-02-26T04:31:29;3;3;
81989;PMS5003;71485;51.638;-0.182;2024-02-26T04:33:55;1;1;
81989;PMS5003;71485;51.638;-0.182;2024-02-26T04:36:20;2;2;
81989;PMS5003;71485;51.638;-0.182;2024-02-26T04:38:46;3;3;
81989;PMS5003;71485;51.638;-0.182;2024-02-26T04:41:12;2;2;
81989;PMS5003;71485;51.638;-0.182;2024-02-26T04:43:41;2;2;
81989;PMS5003;71485;51.638;-0.182;2024-02-26T04:46:03;3;3;
81989;PMS5003;71485;51.638;-0.182;2024-02-26T04:48:29;2;2;
81989;PMS5003;71485;51.638;-0.182;2024-02-26T04:50:55;2;2;
81989;PMS5003;71485;51.638;-0.182;2024-02-26T04:53:20;2;2;
81989;PMS5003;71485;51.638;-0.182;2024-02-26T04:55:46;2;2;
81989;PMS5003;71485;51.638;-0.182;2024-02-26T04:58:12;2;2;
81989;PMS5003;71485;51.638;-0.182;2024-02-26T05:00:38;2;2;
81989;PMS5003;71485;51.638;-0.182;2024-02-26T05:03:03;3;3;
81989;PMS5003;71485;51.638;-0.182;2024-02-26T05:05:29;3;2;
81989;PMS5003;71485;51.638;-0.182;2024-02-26T05:07:54;3;2;
81989;PMS5003;71485;51.638;-0.182;2024-02-26T05:10:22;2;2;
81989;PMS5003;71485;51.638;-0.182;2024-02-26T05:12:46;1;1;
81989;PMS5003;71485;51.638;-0.182;2024-02-26T05:15:12;3;2;
81989;PMS5003;71485;51.638;-0.182;2024-02-26T05:17:37;1;1;
81989;PMS5003;71485;51.638;-0.182;2024-02-26T05:20:03;1;1;
81989;PMS5003;71485;51.638;-0.182;2024-02-26T05:22:29;1;1;
81989;PMS5003;71485;51.638;-0.182;2024-02-26T05:24:56;2;2;
81989;PMS5003;71485;51.638;-0.182;2024-02-26T05:27:21;2;2;
81989;PMS5003;71485;51.638;-0.182;2024-02-26T05:29:46;2;2;
81989;PMS5003;71485;51.638;-0.182;2024-02-26T05:32:11;2;2;
81989;PMS5003;71485;51.638;-0.182;2024-02-26T05:34:37;3;3;
81989;PMS5003;71485;51.638;-0.182;2024-02-26T05:37:03;2;2;
81989;PMS5003;71485;51.638;-0.182;2024-02-26T05:39:32;4;3;
81989;PMS5003;71485;51.638;-0.182;2024-02-26T05:41:56;3;3;
81989;PMS5003;71485;51.638;-0.182;2024-02-26T05:44:25;3;2;
81989;PMS5003;71485;51.638;-0.182;2024-02-26T05:46:47;1;1;
81989;PMS5003;71485;51.638;-0.182;2024-02-26T05:49:16;3;3;
81989;PMS5003;71485;51.638;-0.182;2024-02-26T05:51:41;2;1;
81989;PMS5003;71485;51.638;-0.182;2024-02-26T05:54:03;3;2;
81989;PMS5003;71485;51.638;-0.182;2024-02-26T05:56:31;1;1;
81989;PMS5003;71485;51.638;-0.182;2024-02-26T05:58:57;2;2;
81989;PMS5003;71485;51.638;-0.182;2024-02-26T06:01:21;2;1;
81989;PMS5003;71485;51.638;-0.182;2024-02-26T06:03:47;1;1;
81989;PMS5003;71485;51.638;-0.182;2024-02-26T06:06:11;1;1;
81989;PMS5003;71485;51.638;-0.182;2024-02-26T06:08:38;3;3;
81989;PMS5003;71485;51.638;-0.182;2024-02-26T06:11:04;1;1;
81989;PMS5003;71485;51.638;-0.182;2024-02-26T06:13:31;1;1;
81989;PMS5003;71485;51.638;-0.182;2024-02-26T06:15:54;3;2;
81989;PMS5003;71485;51.638;-0.182;2024-02-26T06:18:19;1;1;
81989;PMS5003;71485;51.638;-0.182;2024-02-26T06:20:46;2;2;
81989;PMS5003;71485;51.638;-0.182;2024-02-26T06:23:11;1;1;
81989;PMS5003;71485;51.638;-0.182;2024-02-26T06:25:40;1;1;
81989;PMS5003;71485;51.638;-0.182;2024-02-26T06:28:04;2;1;
81989;PMS5003;71485;51.638;-0.182;2024-02-26T06:30:28;2;2;
81989;PMS5003;71485;51.638;-0.182;2024-02-26T06:32:53;2;2;
81989;PMS5003;71485;51.638;-0.182;2024-02-26T06:35:19;0;0;
81989;PMS5003;71485;51.638;-0.182;2024-02-26T06:37:45;1;1;
81989;PMS5003;71485;51.638;-0.182;2024-02-26T06:40:12;1;1;
81989;PMS5003;71485;51.638;-0.182;2024-02-26T06:42:36;1;1;
81989;PMS5003;71485;51.638;-0.182;2024-02-26T06:45:03;2;2;
81989;PMS5003;71485;51.638;-0.182;2024-02-26T06:47:27;1;1;
81989;PMS5003;71485;51.638;-0.182;2024-02-26T06:49:54;1;1;
81989;PMS5003;71485;51.638;-0.182;2024-02-26T06:52:20;1;1;
81989;PMS5003;71485;51.638;-0.182;2024-02-26T06:54:47;2;2;
81989;PMS5003;71485;51.638;-0.182;2024-02-26T06:57:10;1;1;
81989;PMS5003;71485;51.638;-0.182;2024-02-26T06:59:38;1;1;
81989;PMS5003;71485;51.638;-0.182;2024-02-26T07:02:01;2;2;
81989;PMS5003;71485;51.638;-0.182;2024-02-26T07:04:30;1;1;
81989;PMS5003;71485;51.638;-0.182;2024-02-26T07:06:53;1;1;
81989;PMS5003;71485;51.638;-0.182;2024-02-26T07:09:19;2;2;
81989;PMS5003;71485;51.638;-0.182;2024-02-26T07:11:44;1;1;
81989;PMS5003;71485;51.638;-0.182;2024-02-26T07:14:10;3;3;
81989;PMS5003;71485;51.638;-0.182;2024-02-26T07:16:36;1;1;
81989;PMS5003;71485;51.638;-0.182;2024-02-26T07:19:02;1;1;
81989;PMS5003;71485;51.638;-0.182;2024-02-26T07:21:28;2;2;
81989;PMS5003;71485;51.638;-0.182;2024-02-26T07:23:53;1;1;
81989;PMS5003;71485;51.638;-0.182;2024-02-26T07:26:19;0;0;
81989;PMS5003;71485;51.638;-0.182;2024-02-26T07:28:44;2;2;
81989;PMS5003;71485;51.638;-0.182;2024-02-26T07:31:10;1;1;
81989;PMS5003;71485;51.638;-0.182;2024-02-26T07:33:35;1;1;
81989;PMS5003;71485;51.638;-0.182;2024-02-26T07:36:01;1;1;
81989;PMS5003;71485;51.638;-0.182;2024-02-26T07:38:31;1;1;
81989;PMS5003;71485;51.638;-0.182;2024-02-26T07:40:57;2;2;
81989;PMS5003;71485;51.638;-0.182;2024-02-26T07:43:19;1;1;
81989;PMS5003;71485;51.638;-0.182;2024-02-26T07:45:45;1;0;
81989;PMS5003;71485;51.638;-0.182;2024-02-26T07:48:12;2;2;
81989;PMS5003;71485;51.638;-0.182;2024-02-26T07:50:36;2;2;
81989;PMS5003;71485;51.638;-0.182;2024-02-26T07:53:02;2;2;
81989;PMS5003;71485;51.638;-0.182;2024-02-26T07:55:27;1;1;
81989;PMS5003;71485;51.638;-0.182;2024-02-26T07:57:54;2;1;
81989;PMS5003;71485;51.638;-0.182;2024-02-26T08:00:22;1;1;
81989;PMS5003;71485;51.638;-0.182;2024-02-26T08:02:44;2;2;
81989;PMS5003;71485;51.638;-0.182;2024-02-26T08:05:10;1;1;
81989;PMS5003;71485;51.638;-0.182;2024-02-26T08:07:35;2;2;
81989;PMS5003;71485;51.638;-0.182;2024-02-26T08:10:01;2;2;
81989;PMS5003;71485;51.638;-0.182;2024-02-26T08:12:26;2;2;
81989;PMS5003;71485;51.638;-0.182;2024-02-26T08:14:52;1;1;
81989;PMS5003;71485;51.638;-0.182;2024-02-26T08:17:17;1;1;
81989;PMS5003;71485;51.638;-0.182;2024-02-26T08:19:43;1;1;
81989;PMS5003;71485;51.638;-0.182;2024-02-26T08:22:10;1;1;
81989;PMS5003;71485;51.638;-0.182;2024-02-26T08:24:36;1;1;
81989;PMS5003;71485;51.638;-0.182;2024-02-26T08:27:01;1;1;
81989;PMS5003;71485;51.638;-0.182;2024-02-26T08:29:26;1;1;
81989;PMS5003;71485;51.638;-0.182;2024-02-26T08:31:52;0;0;
81989;PMS5003;71485;51.638;-0.182;2024-02-26T08:34:17;1;1;
81989;PMS5003;71485;51.638;-0.182;2024-02-26T08:36:43;0;0;
81989;PMS5003;71485;51.638;-0.182;2024-02-26T08:39:11;1;1;
81989;PMS5003;71485;51.638;-0.182;2024-02-26T08:41:35;2;2;
81989;PMS5003;71485;51.638;-0.182;2024-02-26T08:44:01;2;1;
81989;PMS5003;71485;51.638;-0.182;2024-02-26T08:46:26;1;1;
81989;PMS5003;71485;51.638;-0.182;2024-02-26T08:48:52;1;1;
81989;PMS5003;71485;51.638;-0.182;2024-02-26T08:51:18;1;1;
81989;PMS5003;71485;51.638;-0.182;2024-02-26T08:53:43;1;1;
81989;PMS5003;71485;51.638;-0.182;2024-02-26T08:56:12;2;1;
81989;PMS5003;71485;51.638;-0.182;2024-02-26T08:58:36;1;1;
81989;PMS5003;71485;51.638;-0.182;2024-02-26T09:01:00;1;1;
81989;PMS5003;71485;51.638;-0.182;2024-02-26T09:03:25;1;1;
81989;PMS5003;71485;51.638;-0.182;2024-02-26T09:05:51;1;1;
81989;PMS5003;71485;51.638;-0.182;2024-02-26T09:08:18;2;1;
81989;PMS5003;71485;51.638;-0.182;2024-02-26T09:10:43;6;6;
81989;PMS5003;71485;51.638;-0.182;2024-02-26T09:13:08;11;10;
81989;PMS5003;71485;51.638;-0.182;2024-02-26T09:15:33;9;8;
81989;PMS5003;71485;51.638;-0.182;2024-02-26T09:17:59;6;6;
81989;PMS5003;71485;51.638;-0.182;2024-02-26T09:20:25;7;7;
81989;PMS5003;71485;51.638;-0.182;2024-02-26T09:22:50;6;6;
81989;PMS5003;71485;51.638;-0.182;2024-02-26T09:25:17;7;6;
81989;PMS5003;71485;51.638;-0.182;2024-02-26T09:27:43;7;6;
81989;PMS5003;71485;51.638;-0.182;2024-02-26T09:30:10;4;4;
81989;PMS5003;71485;51.638;-0.182;2024-02-26T09:32:33;5;4;
81989;PMS5003;71485;51.638;-0.182;2024-02-26T09:34:58;7;5;
81989;PMS5003;71485;51.638;-0.182;2024-02-26T09:37:24;5;4;
81989;PMS5003;71485;51.638;-0.182;2024-02-26T09:39:52;3;3;
81989;PMS5003;71485;51.638;-0.182;2024-02-26T09:42:19;4;4;
81989;PMS5003;71485;51.638;-0.182;2024-02-26T09:44:45;4;3;
81989;PMS5003;71485;51.638;-0.182;2024-02-26T09:47:10;5;5;
81989;PMS5003;71485;51.638;-0.182;2024-02-26T09:49:38;5;4;
81989;PMS5003;71485;51.638;-0.182;2024-02-26T09:52:01;4;3;
81989;PMS5003;71485;51.638;-0.182;2024-02-26T09:54:23;4;3;
81989;PMS5003;71485;51.638;-0.182;2024-02-26T09:56:49;6;5;
81989;PMS5003;71485;51.638;-0.182;2024-02-26T09:59:17;4;3;
81989;PMS5003;71485;51.638;-0.182;2024-02-26T10:01:42;3;3;
81989;PMS5003;71485;51.638;-0.182;2024-02-26T10:04:06;5;5;
81989;PMS5003;71485;51.638;-0.182;2024-02-26T10:06:32;4;4;
81989;PMS5003;71485;51.638;-0.182;2024-02-26T10:08:58;4;4;
81989;PMS5003;71485;51.638;-0.182;2024-02-26T10:11:23;3;3;
81989;PMS5003;71485;51.638;-0.182;2024-02-26T10:13:49;2;2;
81989;PMS5003;71485;51.638;-0.182;2024-02-26T10:16:16;4;2;
81989;PMS5003;71485;51.638;-0.182;2024-02-26T10:18:44;3;3;
81989;PMS5003;71485;51.638;-0.182;2024-02-26T10:21:06;2;1;
81989;PMS5003;71485;51.638;-0.182;2024-02-26T10:23:31;2;2;
81989;PMS5003;71485;51.638;-0.182;2024-02-26T10:25:58;3;2;
81989;PMS5003;71485;51.638;-0.182;2024-02-26T10:28:25;2;2;
81989;PMS5003;71485;51.638;-0.182;2024-02-26T10:30:50;2;1;
81989;PMS5003;71485;51.638;-0.182;2024-02-26T10:33:16;2;2;
81989;PMS5003;71485;51.638;-0.182;2024-02-26T10:35:40;1;1;
81989;PMS5003;71485;51.638;-0.182;2024-02-26T10:38:10;1;1;
81989;PMS5003;71485;51.638;-0.182;2024-02-26T10:40:31;2;2;
81989;PMS5003;71485;51.638;-0.182;2024-02-26T10:42:58;2;2;
81989;PMS5003;71485;51.638;-0.182;2024-02-26T10:45:22;3;3;
81989;PMS5003;71485;51.638;-0.182;2024-02-26T10:47:48;1;1;
81989;PMS5003;71485;51.638;-0.182;2024-02-26T10:50:15;3;3;
81989;PMS5003;71485;51.638;-0.182;2024-02-26T10:52:39;3;3;
81989;PMS5003;71485;51.638;-0.182;2024-02-26T10:55:05;5;5;
81989;PMS5003;71485;51.638;-0.182;2024-02-26T10:57:33;8;6;
81989;PMS5003;71485;51.638;-0.182;2024-02-26T10:59:58;6;5;
81989;PMS5003;71485;51.638;-0.182;2024-02-26T11:02:22;7;7;
81989;PMS5003;71485;51.638;-0.182;2024-02-26T11:04:48;6;6;
81989;PMS5003;71485;51.638;-0.182;2024-02-26T11:07:13;5;5;
81989;PMS5003;71485;51.638;-0.182;2024-02-26T11:09:40;5;5;
81989;PMS5003;71485;51.638;-0.182;2024-02-26T11:12:05;6;5;
81989;PMS5003;71485;51.638;-0.182;2024-02-26T11:14:30;7;6;
81989;PMS5003;71485;51.638;-0.182;2024-02-26T11:16:56;6;6;
81989;PMS5003;71485;51.638;-0.182;2024-02-26T11:19:23;7;7;
81989;PMS5003;71485;51.638;-0.182;2024-02-26T11:21:48;6;5;
81989;PMS5003;71485;51.638;-0.182;2024-02-26T11:24:13;5;5;
81989;PMS5003;71485;51.638;-0.182;2024-02-26T11:26:41;5;5;
81989;PMS5003;71485;51.638;-0.182;2024-02-26T11:29:04;5;5;
81989;PMS5003;71485;51.638;-0.182;2024-02-26T11:31:30;6;6;
81989;PMS5003;71485;51.638;-0.182;2024-02-26T11:33:56;5;4;
81989;PMS5003;71485;51.638;-0.182;2024-02-26T11:36:21;4;3;
81989;PMS5003;71485;51.638;-0.182;2024-02-26T11:38:48;5;4;
81989;PMS5003;71485;51.638;-0.182;2024-02-26T11:41:12;3;3;
81989;PMS5003;71485;51.638;-0.182;2024-02-26T11:43:49;4;4;
81989;PMS5003;71485;51.638;-0.182;2024-02-26T11:46:04;4;4;
81989;PMS5003;71485;51.638;-0.182;2024-02-26T11:48:29;4;4;
81989;PMS5003;71485;51.638;-0.182;2024-02-26T11:50:56;4;4;
81989;PMS5003;71485;51.638;-0.182;2024-02-26T11:53:22;3;3;
81989;PMS5003;71485;51.638;-0.182;2024-02-26T11:55:46;4;4;
81989;PMS5003;71485;51.638;-0.182;2024-02-26T11:58:12;3;3;
81989;PMS5003;71485;51.638;-0.182;2024-02-26T12:00:41;2;2;
81989;PMS5003;71485;51.638;-0.182;2024-02-26T12:03:04;2;2;
81989;PMS5003;71485;51.638;-0.182;2024-02-26T12:05:30;3;3;
81989;PMS5003;71485;51.638;-0.182;2024-02-26T12:08:01;2;2;
81989;PMS5003;71485;51.638;-0.182;2024-02-26T12:10:22;2;2;
81989;PMS5003;71485;51.638;-0.182;2024-02-26T12:12:47;2;2;
81989;PMS5003;71485;51.638;-0.182;2024-02-26T12:15:12;0;0;
81989;PMS5003;71485;51.638;-0.182;2024-02-26T12:17:39;3;2;
81989;PMS5003;71485;51.638;-0.182;2024-02-26T12:20:08;0;0;
81989;PMS5003;71485;51.638;-0.182;2024-02-26T12:22:29;1;1;
81989;PMS5003;71485;51.638;-0.182;2024-02-26T12:24:58;1;1;
81989;PMS5003;71485;51.638;-0.182;2024-02-26T12:27:20;2;1;
81989;PMS5003;71485;51.638;-0.182;2024-02-26T12:29:46;2;2;
81989;PMS5003;71485;51.638;-0.182;2024-02-26T12:32:11;2;2;
81989;PMS5003;71485;51.638;-0.182;2024-02-26T12:34:38;2;1;
81989;PMS5003;71485;51.638;-0.182;2024-02-26T12:37:03;1;1;
81989;PMS5003;71485;51.638;-0.182;2024-02-26T12:39:29;1;1;
81989;PMS5003;71485;51.638;-0.182;2024-02-26T12:41:55;2;2;
81989;PMS5003;71485;51.638;-0.182;2024-02-26T12:44:24;2;2;
81989;PMS5003;71485;51.638;-0.182;2024-02-26T12:46:45;2;2;
81989;PMS5003;71485;51.638;-0.182;2024-02-26T12:49:16;1;1;
81989;PMS5003;71485;51.638;-0.182;2024-02-26T12:51:37;2;2;
81989;PMS5003;71485;51.638;-0.182;2024-02-26T12:54:02;1;1;
81989;PMS5003;71485;51.638;-0.182;2024-02-26T12:56:28;2;2;
81989;PMS5003;71485;51.638;-0.182;2024-02-26T12:58:54;3;3;
81989;PMS5003;71485;51.638;-0.182;2024-02-26T13:01:21;4;4;
81989;PMS5003;71485;51.638;-0.182;2024-02-26T13:03:45;5;5;
81989;PMS5003;71485;51.638;-0.182;2024-02-26T13:06:13;3;3;
81989;PMS5003;71485;51.638;-0.182;2024-02-26T13:08:37;3;3;
81989;PMS5003;71485;51.638;-0.182;2024-02-26T13:11:02;2;2;
81989;PMS5003;71485;51.638;-0.182;2024-02-26T13:13:29;3;3;
81989;PMS5003;71485;51.638;-0.182;2024-02-26T13:18:19;2;2;
81989;PMS5003;71485;51.638;-0.182;2024-02-26T13:20:45;2;2;
81989;PMS5003;71485;51.638;-0.182;2024-02-26T13:23:11;4;3;
81989;PMS5003;71485;51.638;-0.182;2024-02-26T13:25:37;1;1;
81989;PMS5003;71485;51.638;-0.182;2024-02-26T13:28:07;2;2;
81989;PMS5003;71485;51.638;-0.182;2024-02-26T13:30:28;2;2;
81989;PMS5003;71485;51.638;-0.182;2024-02-26T13:32:53;2;1;
81989;PMS5003;71485;51.638;-0.182;2024-02-26T13:35:19;4;4;
81989;PMS5003;71485;51.638;-0.182;2024-02-26T13:37:44;3;3;
81989;PMS5003;71485;51.638;-0.182;2024-02-26T13:40:12;6;5;
81989;PMS5003;71485;51.638;-0.182;2024-02-26T13:42:36;11;8;
81989;PMS5003;71485;51.638;-0.182;2024-02-26T13:45:03;8;7;
81989;PMS5003;71485;51.638;-0.182;2024-02-26T13:47:27;6;6;
81989;PMS5003;71485;51.638;-0.182;2024-02-26T13:49:53;9;5;
81989;PMS5003;71485;51.638;-0.182;2024-02-26T13:52:18;8;7;
81989;PMS5003;71485;51.638;-0.182;2024-02-26T13:54:44;6;6;
81989;PMS5003;71485;51.638;-0.182;2024-02-26T13:57:09;9;8;
81989;PMS5003;71485;51.638;-0.182;2024-02-26T13:59:37;10;7;
81989;PMS5003;71485;51.638;-0.182;2024-02-26T14:02:01;8;6;
81989;PMS5003;71485;51.638;-0.182;2024-02-26T14:04:26;5;5;
81989;PMS5003;71485;51.638;-0.182;2024-02-26T14:06:53;7;7;
81989;PMS5003;71485;51.638;-0.182;2024-02-26T14:09:22;8;6;
81989;PMS5003;71485;51.638;-0.182;2024-02-26T14:11:45;10;8;
81989;PMS5003;71485;51.638;-0.182;2024-02-26T14:14:11;6;5;
81989;PMS5003;71485;51.638;-0.182;2024-02-26T14:16:36;5;4;
81989;PMS5003;71485;51.638;-0.182;2024-02-26T14:19:02;4;4;
81989;PMS5003;71485;51.638;-0.182;2024-02-26T14:23:35;5;5;
81989;PMS5003;71485;51.638;-0.182;2024-02-26T14:25:06;5;5;
81989;PMS5003;71485;51.638;-0.182;2024-02-26T14:27:31;7;6;
81989;PMS5003;71485;51.638;-0.182;2024-02-26T14:29:56;4;4;
81989;PMS5003;71485;51.638;-0.182;2024-02-26T14:32:23;5;5;
81989;PMS5003;71485;51.638;-0.182;2024-02-26T14:34:48;4;4;
81989;PMS5003;71485;51.638;-0.182;2024-02-26T14:37:13;6;5;
81989;PMS5003;71485;51.638;-0.182;2024-02-26T14:39:39;5;3;
81989;PMS5003;71485;51.638;-0.182;2024-02-26T14:42:05;4;4;
81989;PMS5003;71485;51.638;-0.182;2024-02-26T14:44:30;3;3;
81989;PMS5003;71485;51.638;-0.182;2024-02-26T14:46:56;4;3;
81989;PMS5003;71485;51.638;-0.182;2024-02-26T14:49:23;5;4;
81989;PMS5003;71485;51.638;-0.182;2024-02-26T14:51:47;2;2;
81989;PMS5003;71485;51.638;-0.182;2024-02-26T14:54:15;4;3;
81989;PMS5003;71485;51.638;-0.182;2024-02-26T14:56:38;2;2;
81989;PMS5003;71485;51.638;-0.182;2024-02-26T14:59:05;3;3;
81989;PMS5003;71485;51.638;-0.182;2024-02-26T15:01:30;2;2;
81989;PMS5003;71485;51.638;-0.182;2024-02-26T15:03:56;4;3;
81989;PMS5003;71485;51.638;-0.182;2024-02-26T15:06:21;2;2;
81989;PMS5003;71485;51.638;-0.182;2024-02-26T15:08:48;3;3;
81989;PMS5003;71485;51.638;-0.182;2024-02-26T15:11:12;3;3;
81989;PMS5003;71485;51.638;-0.182;2024-02-26T15:13:38;4;3;
81989;PMS5003;71485;51.638;-0.182;2024-02-26T15:16:04;4;4;
81989;PMS5003;71485;51.638;-0.182;2024-02-26T15:18:29;2;2;
81989;PMS5003;71485;51.638;-0.182;2024-02-26T15:20:56;2;2;
81989;PMS5003;71485;51.638;-0.182;2024-02-26T15:23:21;2;2;
81989;PMS5003;71485;51.638;-0.182;2024-02-26T15:25:47;1;0;
81989;PMS5003;71485;51.638;-0.182;2024-02-26T15:28:12;2;1;
81989;PMS5003;71485;51.638;-0.182;2024-02-26T15:30:38;2;2;
81989;PMS5003;71485;51.638;-0.182;2024-02-26T15:33:05;1;1;
81989;PMS5003;71485;51.638;-0.182;2024-02-26T15:35:31;3;3;
81989;PMS5003;71485;51.638;-0.182;2024-02-26T15:37:55;3;3;
81989;PMS5003;71485;51.638;-0.182;2024-02-26T15:40:21;2;2;
81989;PMS5003;71485;51.638;-0.182;2024-02-26T15:42:49;3;2;
81989;PMS5003;71485;51.638;-0.182;2024-02-26T15:45:12;4;3;
81989;PMS5003;71485;51.638;-0.182;2024-02-26T15:47:37;4;3;
81989;PMS5003;71485;51.638;-0.182;2024-02-26T15:50:05;7;6;
81989;PMS5003;71485;51.638;-0.182;2024-02-26T15:52:28;3;3;
81989;PMS5003;71485;51.638;-0.182;2024-02-26T15:54:54;6;5;
81989;PMS5003;71485;51.638;-0.182;2024-02-26T15:57:19;8;7;
81989;PMS5003;71485;51.638;-0.182;2024-02-26T15:59:45;8;7;
81989;PMS5003;71485;51.638;-0.182;2024-02-26T16:02:12;8;7;
81989;PMS5003;71485;51.638;-0.182;2024-02-26T16:04:40;9;7;
81989;PMS5003;71485;51.638;-0.182;2024-02-26T16:07:03;6;5;
81989;PMS5003;71485;51.638;-0.182;2024-02-26T16:09:28;6;5;
81989;PMS5003;71485;51.638;-0.182;2024-02-26T16:11:53;6;6;
81989;PMS5003;71485;51.638;-0.182;2024-02-26T16:14:21;5;5;
81989;PMS5003;71485;51.638;-0.182;2024-02-26T16:16:47;4;4;
81989;PMS5003;71485;51.638;-0.182;2024-02-26T16:19:11;5;5;
81989;PMS5003;71485;51.638;-0.182;2024-02-26T16:21:36;5;5;
81989;PMS5003;71485;51.638;-0.182;2024-02-26T16:24:01;6;6;
81989;PMS5003;71485;51.638;-0.182;2024-02-26T16:26:28;6;4;